createdAt,value
2023-01-17T18:55:19.136Z,5.38
2023-01-17T18:57:45.937Z,5.68
2023-01-17T19:00:14.872Z,6.20
2023-01-17T19:02:49.181Z,4.75
2023-01-17T19:05:17.907Z,5.43
2023-01-17T19:07:44.843Z,7.75
2023-01-17T19:10:18.003Z,5.40
2023-01-17T19:12:45.570Z,6.35
2023-01-17T19:15:12.362Z,5.35
2023-01-17T19:17:45.898Z,6.93
2023-01-17T19:20:13.377Z,5.30
2023-01-17T19:22:41.232Z,6.55
2023-01-17T19:25:15.191Z,4.90
2023-01-17T19:27:42.083Z,5.60
2023-01-17T19:30:09.881Z,6.20
2023-01-17T19:32:43.020Z,5.32
2023-01-17T19:35:13.843Z,4.82
2023-01-17T19:37:51.949Z,4.80
2023-01-17T19:40:20.176Z,6.07
2023-01-17T19:42:53.938Z,6.40
2023-01-17T19:45:28.027Z,7.13
2023-01-17T19:48:02.085Z,8.02
2023-01-17T19:50:28.857Z,8.48
2023-01-17T19:52:55.618Z,8.85
2023-01-17T19:55:31.969Z,6.82
2023-01-17T19:57:58.906Z,6.28
2023-01-17T20:00:32.986Z,6.70
2023-01-17T20:03:06.048Z,9.00
2023-01-17T20:05:40.966Z,7.57
2023-01-17T20:08:09.813Z,8.23
2023-01-17T20:10:36.676Z,9.20
2023-01-17T20:13:12.017Z,7.10
2023-01-17T20:15:45.037Z,7.20
2023-01-17T20:18:19.051Z,7.78
2023-01-17T20:20:56.639Z,10.05
2023-01-17T20:23:31.006Z,10.27
2023-01-17T20:26:05.016Z,9.65
2023-01-17T20:28:44.022Z,11.15
2023-01-17T20:31:20.147Z,8.75
2023-01-17T20:33:54.082Z,8.70
2023-01-17T20:36:23.761Z,11.30
2023-01-17T20:39:00.114Z,7.28
2023-01-17T20:41:32.860Z,10.80
2023-01-17T20:44:08.102Z,10.55
2023-01-17T20:46:41.050Z,10.05
2023-01-17T20:49:22.055Z,10.95
2023-01-17T20:51:55.078Z,11.45
2023-01-17T20:54:23.452Z,10.45
2023-01-17T20:56:57.131Z,10.70
2023-01-17T20:59:31.110Z,10.98
2023-01-17T21:02:09.240Z,10.13
2023-01-17T21:04:43.171Z,10.20
2023-01-17T21:07:10.012Z,10.50
2023-01-17T21:09:43.303Z,17.60
2023-01-17T21:12:10.389Z,12.18
2023-01-17T21:14:44.080Z,13.40
2023-01-17T21:17:11.019Z,12.77
2023-01-17T21:19:44.168Z,11.75
2023-01-17T21:22:11.253Z,10.68
2023-01-17T21:24:38.145Z,12.73
2023-01-17T21:27:12.103Z,13.10
2023-01-17T21:29:38.940Z,12.10
2023-01-17T21:32:13.095Z,11.10
2023-01-17T21:34:39.864Z,10.02
2023-01-17T21:37:13.146Z,10.90
2023-01-17T21:39:46.139Z,11.82
2023-01-17T21:42:12.993Z,13.82
2023-01-17T21:44:46.139Z,12.13
2023-01-17T21:47:20.136Z,11.40
2023-01-17T21:49:47.497Z,13.38
2023-01-17T21:52:28.148Z,13.98
2023-01-17T21:55:20.273Z,11.00
2023-01-17T21:58:05.616Z,10.43
2023-01-17T22:00:39.127Z,11.20
2023-01-17T22:03:12.185Z,9.20
2023-01-17T22:05:39.011Z,9.32
2023-01-17T22:08:18.245Z,9.63
2023-01-17T22:10:51.160Z,11.43
2023-01-17T22:13:18.591Z,10.02
2023-01-17T22:15:45.982Z,13.10
2023-01-17T22:18:21.223Z,13.18
2023-01-17T22:20:48.601Z,9.15
2023-01-17T22:23:15.521Z,10.15
2023-01-17T22:25:49.216Z,13.18
2023-01-17T22:28:16.043Z,11.00
2023-01-17T22:30:49.214Z,11.25
2023-01-17T22:33:22.200Z,13.10
2023-01-17T22:35:56.440Z,12.77
2023-01-17T22:38:30.221Z,15.48
2023-01-17T22:41:08.925Z,15.00
2023-01-17T22:43:54.300Z,14.32
2023-01-17T22:46:24.952Z,13.52
2023-01-17T22:49:00.264Z,16.42
2023-01-17T22:51:28.292Z,12.63
2023-01-17T22:54:06.309Z,13.38
2023-01-17T22:56:40.221Z,12.65
2023-01-17T22:59:18.282Z,13.23
2023-01-17T23:01:45.168Z,11.73
2023-01-17T23:04:14.343Z,12.20
2023-01-17T23:06:48.265Z,11.68
2023-01-17T23:09:22.278Z,11.00
2023-01-17T23:11:52.800Z,10.88
2023-01-17T23:15:00.277Z,12.18
2023-01-17T23:17:45.860Z,12.07
2023-01-17T23:20:19.268Z,12.20
2023-01-17T23:22:51.737Z,12.00
2023-01-17T23:25:27.270Z,11.35
2023-01-17T23:28:13.555Z,13.35
2023-01-17T23:30:48.369Z,9.88
2023-01-17T23:33:23.301Z,11.85
2023-01-17T23:35:56.311Z,12.52
2023-01-17T23:38:25.932Z,12.32
2023-01-17T23:41:19.353Z,10.30
2023-01-17T23:43:58.319Z,10.13
2023-01-17T23:46:33.565Z,11.98
2023-01-17T23:49:00.506Z,11.98
2023-01-17T23:51:33.300Z,13.90
2023-01-17T23:54:11.308Z,10.73
2023-01-17T23:56:39.008Z,13.57
2023-01-17T23:59:12.319Z,11.32
